sensor_id;sensor_type;location;lat;lon;timestamp;temperature;humidity
68274;SHT30;55104;47.356;19.448;2022-12-17T00:01:34;2.47;97.14
68274;SHT30;55104;47.356;19.448;2022-12-17T00:04:54;2.43;97.32
68274;SHT30;55104;47.356;19.448;2022-12-17T00:08:15;2.50;97.05
68274;SHT30;55104;47.356;19.448;2022-12-17T00:11:35;2.53;96.56
68274;SHT30;55104;47.356;19.448;2022-12-17T00:14:56;2.40;96.80
68274;SHT30;55104;47.356;19.448;2022-12-17T00:18:18;2.46;96.35
68274;SHT30;55104;47.356;19.448;2022-12-17T00:21:38;2.40;96.22
68274;SHT30;55104;47.356;19.448;2022-12-17T00:24:59;2.37;96.33
68274;SHT30;55104;47.356;19.448;2022-12-17T00:28:19;2.40;96.21
68274;SHT30;55104;47.356;19.448;2022-12-17T00:31:40;2.28;96.11
68274;SHT30;55104;47.356;19.448;2022-12-17T00:35:00;2.25;96.32
68274;SHT30;55104;47.356;19.448;2022-12-17T00:38:21;2.12;96.52
68274;SHT30;55104;47.356;19.448;2022-12-17T00:41:41;2.14;96.26
68274;SHT30;55104;47.356;19.448;2022-12-17T00:45:02;1.99;96.18
68274;SHT30;55104;47.356;19.448;2022-12-17T00:48:23;1.95;96.24
68274;SHT30;55104;47.356;19.448;2022-12-17T00:51:44;1.95;96.45
68274;SHT30;55104;47.356;19.448;2022-12-17T00:55:04;1.98;96.35
68274;SHT30;55104;47.356;19.448;2022-12-17T00:58:25;1.93;96.62
68274;SHT30;55104;47.356;19.448;2022-12-17T01:01:46;1.91;96.44
68274;SHT30;55104;47.356;19.448;2022-12-17T01:05:07;1.91;96.33
68274;SHT30;55104;47.356;19.448;2022-12-17T01:08:28;1.84;96.14
68274;SHT30;55104;47.356;19.448;2022-12-17T01:11:48;1.98;96.33
68274;SHT30;55104;47.356;19.448;2022-12-17T01:15:09;1.95;96.45
68274;SHT30;55104;47.356;19.448;2022-12-17T01:18:29;1.93;96.83
68274;SHT30;55104;47.356;19.448;2022-12-17T01:21:50;1.91;96.54
68274;SHT30;55104;47.356;19.448;2022-12-17T01:25:12;1.87;96.36
68274;SHT30;55104;47.356;19.448;2022-12-17T01:28:33;1.90;96.43
68274;SHT30;55104;47.356;19.448;2022-12-17T01:31:54;1.82;96.39
68274;SHT30;55104;47.356;19.448;2022-12-17T01:35:14;1.77;96.48
68274;SHT30;55104;47.356;19.448;2022-12-17T01:38:35;1.84;96.49
68274;SHT30;55104;47.356;19.448;2022-12-17T01:41:55;1.80;96.52
68274;SHT30;55104;47.356;19.448;2022-12-17T01:45:16;1.78;96.24
68274;SHT30;55104;47.356;19.448;2022-12-17T01:48:43;1.80;96.15
68274;SHT30;55104;47.356;19.448;2022-12-17T01:52:07;1.81;96.16
68274;SHT30;55104;47.356;19.448;2022-12-17T01:55:28;1.87;96.13
68274;SHT30;55104;47.356;19.448;2022-12-17T01:58:49;1.88;96.08
68274;SHT30;55104;47.356;19.448;2022-12-17T02:02:09;1.78;95.93
68274;SHT30;55104;47.356;19.448;2022-12-17T02:09:16;1.74;96.39
68274;SHT30;55104;47.356;19.448;2022-12-17T02:12:45;1.75;96.97
68274;SHT30;55104;47.356;19.448;2022-12-17T02:16:26;1.81;96.48
68274;SHT30;55104;47.356;19.448;2022-12-17T02:20:04;1.74;96.57
68274;SHT30;55104;47.356;19.448;2022-12-17T02:27:09;1.74;96.29
68274;SHT30;55104;47.356;19.448;2022-12-17T02:30:30;1.71;96.19
68274;SHT30;55104;47.356;19.448;2022-12-17T02:33:51;1.64;96.50
68274;SHT30;55104;47.356;19.448;2022-12-17T02:37:13;1.66;96.06
68274;SHT30;55104;47.356;19.448;2022-12-17T02:40:36;1.56;95.91
68274;SHT30;55104;47.356;19.448;2022-12-17T02:43:59;1.60;95.80
68274;SHT30;55104;47.356;19.448;2022-12-17T02:47:21;1.67;95.79
68274;SHT30;55104;47.356;19.448;2022-12-17T02:50:42;1.53;95.80
68274;SHT30;55104;47.356;19.448;2022-12-17T02:54:03;1.59;95.86
68274;SHT30;55104;47.356;19.448;2022-12-17T02:57:23;1.64;95.39
68274;SHT30;55104;47.356;19.448;2022-12-17T03:00:47;1.57;95.24
68274;SHT30;55104;47.356;19.448;2022-12-17T03:04:09;1.54;95.70
68274;SHT30;55104;47.356;19.448;2022-12-17T03:07:30;1.50;95.68
68274;SHT30;55104;47.356;19.448;2022-12-17T03:10:50;1.63;95.51
68274;SHT30;55104;47.356;19.448;2022-12-17T03:14:11;1.50;94.90
68274;SHT30;55104;47.356;19.448;2022-12-17T03:17:31;1.43;95.43
68274;SHT30;55104;47.356;19.448;2022-12-17T03:20:52;1.45;95.13
68274;SHT30;55104;47.356;19.448;2022-12-17T03:24:13;1.43;94.88
68274;SHT30;55104;47.356;19.448;2022-12-17T03:27:34;1.36;94.92
68274;SHT30;55104;47.356;19.448;2022-12-17T03:30:58;1.42;94.91
68274;SHT30;55104;47.356;19.448;2022-12-17T03:34:19;1.38;95.06
68274;SHT30;55104;47.356;19.448;2022-12-17T03:37:39;1.39;95.12
68274;SHT30;55104;47.356;19.448;2022-12-17T03:41:00;1.36;95.10
68274;SHT30;55104;47.356;19.448;2022-12-17T03:44:21;1.31;95.04
68274;SHT30;55104;47.356;19.448;2022-12-17T03:47:41;1.19;95.00
68274;SHT30;55104;47.356;19.448;2022-12-17T03:51:02;1.24;94.96
68274;SHT30;55104;47.356;19.448;2022-12-17T03:54:23;1.18;94.78
68274;SHT30;55104;47.356;19.448;2022-12-17T03:57:43;1.14;94.43
68274;SHT30;55104;47.356;19.448;2022-12-17T04:01:04;1.09;94.99
68274;SHT30;55104;47.356;19.448;2022-12-17T04:04:24;1.04;94.85
68274;SHT30;55104;47.356;19.448;2022-12-17T04:07:45;1.08;94.78
68274;SHT30;55104;47.356;19.448;2022-12-17T04:11:05;1.05;94.77
68274;SHT30;55104;47.356;19.448;2022-12-17T04:14:26;1.02;94.50
68274;SHT30;55104;47.356;19.448;2022-12-17T04:17:46;1.02;94.43
68274;SHT30;55104;47.356;19.448;2022-12-17T04:21:06;1.01;94.16
68274;SHT30;55104;47.356;19.448;2022-12-17T04:24:27;0.95;94.64
68274;SHT30;55104;47.356;19.448;2022-12-17T04:27:47;0.92;94.41
68274;SHT30;55104;47.356;19.448;2022-12-17T04:31:08;0.90;94.26
68274;SHT30;55104;47.356;19.448;2022-12-17T04:34:28;0.83;94.47
68274;SHT30;55104;47.356;19.448;2022-12-17T04:37:49;0.76;94.26
68274;SHT30;55104;47.356;19.448;2022-12-17T04:41:09;0.66;94.70
68274;SHT30;55104;47.356;19.448;2022-12-17T04:44:30;0.70;94.70
68274;SHT30;55104;47.356;19.448;2022-12-17T04:47:50;0.61;94.54
68274;SHT30;55104;47.356;19.448;2022-12-17T04:51:12;0.64;94.45
68274;SHT30;55104;47.356;19.448;2022-12-17T04:54:32;0.54;94.55
68274;SHT30;55104;47.356;19.448;2022-12-17T04:57:53;0.49;94.47
68274;SHT30;55104;47.356;19.448;2022-12-17T05:01:13;0.50;93.94
68274;SHT30;55104;47.356;19.448;2022-12-17T05:04:34;0.52;93.67
68274;SHT30;55104;47.356;19.448;2022-12-17T05:07:55;0.43;93.83
68274;SHT30;55104;47.356;19.448;2022-12-17T05:11:16;0.42;94.15
68274;SHT30;55104;47.356;19.448;2022-12-17T05:14:36;0.45;93.93
68274;SHT30;55104;47.356;19.448;2022-12-17T05:18:05;0.33;93.75
68274;SHT30;55104;47.356;19.448;2022-12-17T05:21:26;0.29;93.29
68274;SHT30;55104;47.356;19.448;2022-12-17T05:24:47;0.26;92.89
68274;SHT30;55104;47.356;19.448;2022-12-17T05:28:07;0.18;92.88
68274;SHT30;55104;47.356;19.448;2022-12-17T05:31:28;0.16;92.82
68274;SHT30;55104;47.356;19.448;2022-12-17T05:34:48;0.15;93.14
68274;SHT30;55104;47.356;19.448;2022-12-17T05:38:10;0.19;92.74
68274;SHT30;55104;47.356;19.448;2022-12-17T05:41:30;0.16;92.72
68274;SHT30;55104;47.356;19.448;2022-12-17T05:44:51;0.18;92.07
68274;SHT30;55104;47.356;19.448;2022-12-17T05:48:11;0.11;92.00
68274;SHT30;55104;47.356;19.448;2022-12-17T05:51:31;0.14;92.27
68274;SHT30;55104;47.356;19.448;2022-12-17T05:54:52;0.11;91.97
68274;SHT30;55104;47.356;19.448;2022-12-17T05:58:13;0.16;92.01
68274;SHT30;55104;47.356;19.448;2022-12-17T06:01:33;0.09;91.41
68274;SHT30;55104;47.356;19.448;2022-12-17T06:04:54;-0.01;91.07
68274;SHT30;55104;47.356;19.448;2022-12-17T06:08:14;0.02;91.25
68274;SHT30;55104;47.356;19.448;2022-12-17T06:11:35;-0.06;90.92
68274;SHT30;55104;47.356;19.448;2022-12-17T06:15:03;-0.07;91.55
68274;SHT30;55104;47.356;19.448;2022-12-17T06:18:24;-0.01;91.33
68274;SHT30;55104;47.356;19.448;2022-12-17T06:21:44;0.01;91.08
68274;SHT30;55104;47.356;19.448;2022-12-17T06:25:05;-0.09;90.89
68274;SHT30;55104;47.356;19.448;2022-12-17T06:28:25;-0.02;90.51
68274;SHT30;55104;47.356;19.448;2022-12-17T06:31:46;-0.05;90.58
68274;SHT30;55104;47.356;19.448;2022-12-17T06:35:07;-0.02;90.73
68274;SHT30;55104;47.356;19.448;2022-12-17T06:38:28;0.08;90.84
68274;SHT30;55104;47.356;19.448;2022-12-17T06:41:48;0.05;90.91
68274;SHT30;55104;47.356;19.448;2022-12-17T06:45:09;0.01;90.71
68274;SHT30;55104;47.356;19.448;2022-12-17T06:48:29;0.04;89.59
68274;SHT30;55104;47.356;19.448;2022-12-17T06:51:50;0.02;89.79
68274;SHT30;55104;47.356;19.448;2022-12-17T06:55:10;-0.01;89.29
68274;SHT30;55104;47.356;19.448;2022-12-17T06:58:34;0.02;89.69
68274;SHT30;55104;47.356;19.448;2022-12-17T07:01:55;-0.01;90.37
68274;SHT30;55104;47.356;19.448;2022-12-17T07:05:16;-0.01;89.77
68274;SHT30;55104;47.356;19.448;2022-12-17T07:08:36;-0.01;89.67
68274;SHT30;55104;47.356;19.448;2022-12-17T07:11:57;-0.07;89.20
68274;SHT30;55104;47.356;19.448;2022-12-17T07:15:18;-0.05;89.14
68274;SHT30;55104;47.356;19.448;2022-12-17T07:18:39;-0.06;88.66
68274;SHT30;55104;47.356;19.448;2022-12-17T07:21:59;-0.07;89.02
68274;SHT30;55104;47.356;19.448;2022-12-17T07:25:20;-0.07;88.36
68274;SHT30;55104;47.356;19.448;2022-12-17T07:28:47;-0.05;88.64
68274;SHT30;55104;47.356;19.448;2022-12-17T07:32:07;0.05;88.81
68274;SHT30;55104;47.356;19.448;2022-12-17T07:35:27;0.02;88.17
68274;SHT30;55104;47.356;19.448;2022-12-17T07:38:48;0.06;87.76
68274;SHT30;55104;47.356;19.448;2022-12-17T07:42:09;0.08;87.52
68274;SHT30;55104;47.356;19.448;2022-12-17T07:45:30;0.06;87.60
68274;SHT30;55104;47.356;19.448;2022-12-17T07:48:50;0.09;87.46
68274;SHT30;55104;47.356;19.448;2022-12-17T07:52:11;0.12;87.54
68274;SHT30;55104;47.356;19.448;2022-12-17T07:55:32;0.12;87.29
68274;SHT30;55104;47.356;19.448;2022-12-17T07:58:52;0.21;87.33
68274;SHT30;55104;47.356;19.448;2022-12-17T08:02:12;0.21;87.01
68274;SHT30;55104;47.356;19.448;2022-12-17T08:05:33;0.22;86.90
68274;SHT30;55104;47.356;19.448;2022-12-17T08:08:54;0.15;87.21
68274;SHT30;55104;47.356;19.448;2022-12-17T08:12:14;0.22;86.79
68274;SHT30;55104;47.356;19.448;2022-12-17T08:15:35;0.22;86.94
68274;SHT30;55104;47.356;19.448;2022-12-17T08:18:55;0.19;86.30
68274;SHT30;55104;47.356;19.448;2022-12-17T08:22:16;0.30;86.77
68274;SHT30;55104;47.356;19.448;2022-12-17T08:25:36;0.30;87.09
68274;SHT30;55104;47.356;19.448;2022-12-17T08:28:58;0.30;87.12
68274;SHT30;55104;47.356;19.448;2022-12-17T08:32:18;0.33;86.34
68274;SHT30;55104;47.356;19.448;2022-12-17T08:35:39;0.33;85.92
68274;SHT30;55104;47.356;19.448;2022-12-17T08:39:00;0.33;85.83
68274;SHT30;55104;47.356;19.448;2022-12-17T08:42:24;0.38;86.43
68274;SHT30;55104;47.356;19.448;2022-12-17T08:45:49;0.54;86.00
68274;SHT30;55104;47.356;19.448;2022-12-17T08:49:10;0.52;85.89
68274;SHT30;55104;47.356;19.448;2022-12-17T08:52:30;0.60;85.64
68274;SHT30;55104;47.356;19.448;2022-12-17T08:55:51;0.59;84.53
68274;SHT30;55104;47.356;19.448;2022-12-17T08:59:11;0.76;86.03
68274;SHT30;55104;47.356;19.448;2022-12-17T09:02:32;0.61;84.19
68274;SHT30;55104;47.356;19.448;2022-12-17T09:05:52;0.56;85.42
68274;SHT30;55104;47.356;19.448;2022-12-17T09:09:13;0.61;84.09
68274;SHT30;55104;47.356;19.448;2022-12-17T09:12:34;0.63;84.32
68274;SHT30;55104;47.356;19.448;2022-12-17T09:15:55;0.67;84.94
68274;SHT30;55104;47.356;19.448;2022-12-17T09:19:15;0.95;84.96
68274;SHT30;55104;47.356;19.448;2022-12-17T09:22:36;1.02;83.73
68274;SHT30;55104;47.356;19.448;2022-12-17T09:25:56;0.95;83.12
68274;SHT30;55104;47.356;19.448;2022-12-17T09:29:17;1.04;83.91
68274;SHT30;55104;47.356;19.448;2022-12-17T09:32:38;0.98;82.93
68274;SHT30;55104;47.356;19.448;2022-12-17T09:36:01;1.02;83.51
68274;SHT30;55104;47.356;19.448;2022-12-17T09:39:22;1.14;82.95
68274;SHT30;55104;47.356;19.448;2022-12-17T09:42:57;1.02;82.37
68274;SHT30;55104;47.356;19.448;2022-12-17T09:46:38;1.07;82.35
68274;SHT30;55104;47.356;19.448;2022-12-17T09:50:02;1.18;82.84
68274;SHT30;55104;47.356;19.448;2022-12-17T09:53:41;1.16;82.28
68274;SHT30;55104;47.356;19.448;2022-12-17T09:57:03;1.21;82.27
68274;SHT30;55104;47.356;19.448;2022-12-17T10:00:27;1.16;81.81
68274;SHT30;55104;47.356;19.448;2022-12-17T10:03:48;1.12;81.37
68274;SHT30;55104;47.356;19.448;2022-12-17T10:07:15;1.22;81.71
68274;SHT30;55104;47.356;19.448;2022-12-17T10:10:43;1.22;81.37
68274;SHT30;55104;47.356;19.448;2022-12-17T10:14:15;1.39;81.77
68274;SHT30;55104;47.356;19.448;2022-12-17T10:17:36;1.33;80.47
68274;SHT30;55104;47.356;19.448;2022-12-17T10:35:11;1.66;81.67
68274;SHT30;55104;47.356;19.448;2022-12-17T10:38:34;1.90;80.19
68274;SHT30;55104;47.356;19.448;2022-12-17T10:41:54;1.64;79.08
68274;SHT30;55104;47.356;19.448;2022-12-17T10:48:41;1.68;78.98
68274;SHT30;55104;47.356;19.448;2022-12-17T10:52:27;1.35;79.35
68274;SHT30;55104;47.356;19.448;2022-12-17T10:55:53;1.36;80.16
68274;SHT30;55104;47.356;19.448;2022-12-17T10:59:28;1.32;79.96
68274;SHT30;55104;47.356;19.448;2022-12-17T11:02:49;1.35;79.72
68274;SHT30;55104;47.356;19.448;2022-12-17T11:06:14;1.40;80.22
68274;SHT30;55104;47.356;19.448;2022-12-17T11:09:48;1.32;80.19
68274;SHT30;55104;47.356;19.448;2022-12-17T11:13:43;1.28;80.19
68274;SHT30;55104;47.356;19.448;2022-12-17T11:17:08;1.12;79.69
68274;SHT30;55104;47.356;19.448;2022-12-17T11:20:57;1.11;80.46
68274;SHT30;55104;47.356;19.448;2022-12-17T11:24:25;1.22;80.02
68274;SHT30;55104;47.356;19.448;2022-12-17T11:27:52;1.29;79.97
68274;SHT30;55104;47.356;19.448;2022-12-17T11:38:57;1.22;79.80
68274;SHT30;55104;47.356;19.448;2022-12-17T11:42:38;1.16;79.95
68274;SHT30;55104;47.356;19.448;2022-12-17T11:57:28;1.75;79.14
68274;SHT30;55104;47.356;19.448;2022-12-17T12:01:06;1.90;78.06
68274;SHT30;55104;47.356;19.448;2022-12-17T12:08:23;2.19;77.59
68274;SHT30;55104;47.356;19.448;2022-12-17T12:12:00;2.09;77.76
68274;SHT30;55104;47.356;19.448;2022-12-17T12:18:59;1.90;77.88
68274;SHT30;55104;47.356;19.448;2022-12-17T12:26:14;1.87;78.23
68274;SHT30;55104;47.356;19.448;2022-12-17T12:29:44;1.49;78.39
68274;SHT30;55104;47.356;19.448;2022-12-17T12:36:43;1.35;79.00
68274;SHT30;55104;47.356;19.448;2022-12-17T12:43:58;1.40;79.98
68274;SHT30;55104;47.356;19.448;2022-12-17T12:51:32;1.42;79.13
68274;SHT30;55104;47.356;19.448;2022-12-17T12:54:54;1.32;79.86
68274;SHT30;55104;47.356;19.448;2022-12-17T12:58:30;1.21;79.63
68274;SHT30;55104;47.356;19.448;2022-12-17T13:01:51;1.19;79.88
68274;SHT30;55104;47.356;19.448;2022-12-17T13:05:38;1.12;80.20
68274;SHT30;55104;47.356;19.448;2022-12-17T13:08:41;1.12;81.10
68274;SHT30;55104;47.356;19.448;2022-12-17T13:11:45;1.15;80.37
68274;SHT30;55104;47.356;19.448;2022-12-17T13:14:50;1.14;80.36
68274;SHT30;55104;47.356;19.448;2022-12-17T13:17:57;1.14;80.27
68274;SHT30;55104;47.356;19.448;2022-12-17T13:21:25;1.07;80.32
68274;SHT30;55104;47.356;19.448;2022-12-17T13:24:27;1.01;80.34
68274;SHT30;55104;47.356;19.448;2022-12-17T13:30:37;0.95;80.58
68274;SHT30;55104;47.356;19.448;2022-12-17T13:34:14;0.87;80.50
68274;SHT30;55104;47.356;19.448;2022-12-17T13:43:49;0.77;80.75
68274;SHT30;55104;47.356;19.448;2022-12-17T13:46:53;0.77;81.13
68274;SHT30;55104;47.356;19.448;2022-12-17T13:49:58;0.77;80.50
68274;SHT30;55104;47.356;19.448;2022-12-17T13:53:20;0.71;80.90
68274;SHT30;55104;47.356;19.448;2022-12-17T13:56:28;0.60;81.33
68274;SHT30;55104;47.356;19.448;2022-12-17T13:59:30;0.66;81.20
68274;SHT30;55104;47.356;19.448;2022-12-17T14:02:34;0.63;81.12
68274;SHT30;55104;47.356;19.448;2022-12-17T14:05:42;0.57;81.05
68274;SHT30;55104;47.356;19.448;2022-12-17T14:08:46;0.56;81.24
68274;SHT30;55104;47.356;19.448;2022-12-17T14:11:51;0.56;81.11
68274;SHT30;55104;47.356;19.448;2022-12-17T14:15:23;0.42;81.98
68274;SHT30;55104;47.356;19.448;2022-12-17T14:18:26;0.36;81.49
68274;SHT30;55104;47.356;19.448;2022-12-17T14:21:28;0.32;82.11
68274;SHT30;55104;47.356;19.448;2022-12-17T14:24:30;0.19;82.19
68274;SHT30;55104;47.356;19.448;2022-12-17T14:27:34;0.15;83.00
68274;SHT30;55104;47.356;19.448;2022-12-17T14:30:39;0.14;82.83
68274;SHT30;55104;47.356;19.448;2022-12-17T14:34:03;0.12;82.78
68274;SHT30;55104;47.356;19.448;2022-12-17T14:37:18;0.02;82.90
68274;SHT30;55104;47.356;19.448;2022-12-17T14:40:23;0.06;82.93
68274;SHT30;55104;47.356;19.448;2022-12-17T14:43:27;0.01;83.20
68274;SHT30;55104;47.356;19.448;2022-12-17T14:46:32;-0.02;83.33
68274;SHT30;55104;47.356;19.448;2022-12-17T14:49:36;-0.03;83.54
68274;SHT30;55104;47.356;19.448;2022-12-17T14:52:41;0.02;83.58
68274;SHT30;55104;47.356;19.448;2022-12-17T14:55:55;-0.07;83.61
68274;SHT30;55104;47.356;19.448;2022-12-17T14:58:58;-0.12;83.72
68274;SHT30;55104;47.356;19.448;2022-12-17T15:02:12;-0.13;83.84
68274;SHT30;55104;47.356;19.448;2022-12-17T15:05:17;-0.12;83.63
68274;SHT30;55104;47.356;19.448;2022-12-17T15:08:20;-0.17;83.47
68274;SHT30;55104;47.356;19.448;2022-12-17T15:11:22;-0.23;84.26
68274;SHT30;55104;47.356;19.448;2022-12-17T15:14:24;-0.29;84.00
68274;SHT30;55104;47.356;19.448;2022-12-17T15:17:26;-0.31;84.31
68274;SHT30;55104;47.356;19.448;2022-12-17T15:20:29;-0.27;84.14
68274;SHT30;55104;47.356;19.448;2022-12-17T15:23:32;-0.31;83.54
68274;SHT30;55104;47.356;19.448;2022-12-17T15:26:34;-0.38;83.75
68274;SHT30;55104;47.356;19.448;2022-12-17T15:29:36;-0.40;84.15
68274;SHT30;55104;47.356;19.448;2022-12-17T15:32:38;-0.41;84.15
68274;SHT30;55104;47.356;19.448;2022-12-17T15:35:41;-0.45;83.86
68274;SHT30;55104;47.356;19.448;2022-12-17T15:38:43;-0.50;84.35
68274;SHT30;55104;47.356;19.448;2022-12-17T15:41:49;-0.50;84.32
68274;SHT30;55104;47.356;19.448;2022-12-17T15:45:09;-0.44;84.27
68274;SHT30;55104;47.356;19.448;2022-12-17T15:48:13;-0.56;85.00
68274;SHT30;55104;47.356;19.448;2022-12-17T15:51:15;-0.56;85.18
68274;SHT30;55104;47.356;19.448;2022-12-17T15:54:20;-0.61;84.87
68274;SHT30;55104;47.356;19.448;2022-12-17T15:57:23;-0.56;84.74
68274;SHT30;55104;47.356;19.448;2022-12-17T16:00:25;-0.57;84.67
68274;SHT30;55104;47.356;19.448;2022-12-17T16:03:27;-0.57;84.67
68274;SHT30;55104;47.356;19.448;2022-12-17T16:06:29;-0.64;84.89
68274;SHT30;55104;47.356;19.448;2022-12-17T16:09:31;-0.65;85.26
68274;SHT30;55104;47.356;19.448;2022-12-17T16:12:33;-0.67;85.23
68274;SHT30;55104;47.356;19.448;2022-12-17T16:15:38;-0.68;85.25
68274;SHT30;55104;47.356;19.448;2022-12-17T16:18:40;-0.74;85.42
68274;SHT30;55104;47.356;19.448;2022-12-17T16:21:43;-0.79;85.51
68274;SHT30;55104;47.356;19.448;2022-12-17T16:24:47;-0.75;85.18
68274;SHT30;55104;47.356;19.448;2022-12-17T16:27:49;-0.79;85.25
68274;SHT30;55104;47.356;19.448;2022-12-17T16:31:03;-0.78;85.22
68274;SHT30;55104;47.356;19.448;2022-12-17T16:34:09;-0.78;85.03
68274;SHT30;55104;47.356;19.448;2022-12-17T16:37:11;-0.82;85.35
68274;SHT30;55104;47.356;19.448;2022-12-17T16:40:13;-0.86;85.81
68274;SHT30;55104;47.356;19.448;2022-12-17T16:43:15;-0.93;85.67
68274;SHT30;55104;47.356;19.448;2022-12-17T16:46:29;-0.93;85.88
68274;SHT30;55104;47.356;19.448;2022-12-17T16:49:32;-0.96;86.15
68274;SHT30;55104;47.356;19.448;2022-12-17T16:52:34;-0.95;85.95
68274;SHT30;55104;47.356;19.448;2022-12-17T16:55:46;-0.99;86.60
68274;SHT30;55104;47.356;19.448;2022-12-17T16:58:49;-1.03;86.61
68274;SHT30;55104;47.356;19.448;2022-12-17T17:01:51;-1.07;86.80
68274;SHT30;55104;47.356;19.448;2022-12-17T17:04:54;-1.03;86.81
68274;SHT30;55104;47.356;19.448;2022-12-17T17:07:56;-1.03;86.85
68274;SHT30;55104;47.356;19.448;2022-12-17T17:11:14;-1.07;86.36
68274;SHT30;55104;47.356;19.448;2022-12-17T17:14:16;-1.07;86.45
68274;SHT30;55104;47.356;19.448;2022-12-17T17:17:18;-1.00;85.69
68274;SHT30;55104;47.356;19.448;2022-12-17T17:20:40;-1.00;85.49
68274;SHT30;55104;47.356;19.448;2022-12-17T17:23:43;-1.09;86.13
68274;SHT30;55104;47.356;19.448;2022-12-17T17:26:46;-1.10;86.32
68274;SHT30;55104;47.356;19.448;2022-12-17T17:29:48;-1.12;86.21
68274;SHT30;55104;47.356;19.448;2022-12-17T17:32:50;-1.15;86.56
68274;SHT30;55104;47.356;19.448;2022-12-17T17:35:52;-1.17;86.67
68274;SHT30;55104;47.356;19.448;2022-12-17T17:38:56;-1.23;86.97
68274;SHT30;55104;47.356;19.448;2022-12-17T17:41:59;-1.24;86.99
68274;SHT30;55104;47.356;19.448;2022-12-17T17:45:01;-1.29;87.53
68274;SHT30;55104;47.356;19.448;2022-12-17T17:48:04;-1.24;87.47
68274;SHT30;55104;47.356;19.448;2022-12-17T17:51:09;-1.29;86.96
68274;SHT30;55104;47.356;19.448;2022-12-17T17:54:12;-1.23;86.78
68274;SHT30;55104;47.356;19.448;2022-12-17T17:57:15;-1.23;86.53
68274;SHT30;55104;47.356;19.448;2022-12-17T18:00:17;-1.26;86.65
68274;SHT30;55104;47.356;19.448;2022-12-17T18:03:19;-1.29;86.80
68274;SHT30;55104;47.356;19.448;2022-12-17T18:06:21;-1.33;86.66
68274;SHT30;55104;47.356;19.448;2022-12-17T18:09:23;-1.30;86.64
68274;SHT30;55104;47.356;19.448;2022-12-17T18:12:25;-1.30;86.65
68274;SHT30;55104;47.356;19.448;2022-12-17T18:15:46;-1.26;86.38
68274;SHT30;55104;47.356;19.448;2022-12-17T18:18:48;-1.32;86.45
68274;SHT30;55104;47.356;19.448;2022-12-17T18:21:51;-1.36;86.69
68274;SHT30;55104;47.356;19.448;2022-12-17T18:24:53;-1.37;86.24
68274;SHT30;55104;47.356;19.448;2022-12-17T18:27:55;-1.41;86.54
68274;SHT30;55104;47.356;19.448;2022-12-17T18:30:57;-1.39;86.51
68274;SHT30;55104;47.356;19.448;2022-12-17T18:34:00;-1.33;86.07
68274;SHT30;55104;47.356;19.448;2022-12-17T18:37:03;-1.41;86.37
68274;SHT30;55104;47.356;19.448;2022-12-17T18:40:06;-1.40;86.21
68274;SHT30;55104;47.356;19.448;2022-12-17T18:43:08;-1.34;86.02
68274;SHT30;55104;47.356;19.448;2022-12-17T18:46:26;-1.32;85.92
68274;SHT30;55104;47.356;19.448;2022-12-17T18:49:28;-1.32;85.79
68274;SHT30;55104;47.356;19.448;2022-12-17T18:52:30;-1.26;85.62
68274;SHT30;55104;47.356;19.448;2022-12-17T18:55:32;-1.27;85.53
68274;SHT30;55104;47.356;19.448;2022-12-17T18:58:36;-1.30;85.87
68274;SHT30;55104;47.356;19.448;2022-12-17T19:01:39;-1.30;85.96
68274;SHT30;55104;47.356;19.448;2022-12-17T19:04:41;-1.40;86.37
68274;SHT30;55104;47.356;19.448;2022-12-17T19:07:43;-1.44;86.23
68274;SHT30;55104;47.356;19.448;2022-12-17T19:10:45;-1.41;86.37
68274;SHT30;55104;47.356;19.448;2022-12-17T19:13:49;-1.44;86.45
68274;SHT30;55104;47.356;19.448;2022-12-17T19:16:53;-1.46;86.44
68274;SHT30;55104;47.356;19.448;2022-12-17T19:19:55;-1.37;86.23
68274;SHT30;55104;47.356;19.448;2022-12-17T19:22:57;-1.41;86.20
68274;SHT30;55104;47.356;19.448;2022-12-17T19:26:25;-1.41;86.42
68274;SHT30;55104;47.356;19.448;2022-12-17T19:29:28;-1.44;86.27
68274;SHT30;55104;47.356;19.448;2022-12-17T19:32:30;-1.43;86.42
68274;SHT30;55104;47.356;19.448;2022-12-17T19:35:36;-1.41;85.98
68274;SHT30;55104;47.356;19.448;2022-12-17T19:38:38;-1.39;86.26
68274;SHT30;55104;47.356;19.448;2022-12-17T19:41:41;-1.46;86.37
68274;SHT30;55104;47.356;19.448;2022-12-17T19:44:43;-1.54;86.94
68274;SHT30;55104;47.356;19.448;2022-12-17T19:47:47;-1.51;86.91
68274;SHT30;55104;47.356;19.448;2022-12-17T19:50:55;-1.50;86.85
68274;SHT30;55104;47.356;19.448;2022-12-17T19:53:58;-1.65;87.40
68274;SHT30;55104;47.356;19.448;2022-12-17T19:57:09;-1.71;87.56
68274;SHT30;55104;47.356;19.448;2022-12-17T20:00:11;-1.67;87.45
68274;SHT30;55104;47.356;19.448;2022-12-17T20:03:13;-1.64;87.25
68274;SHT30;55104;47.356;19.448;2022-12-17T20:06:17;-1.65;87.24
68274;SHT30;55104;47.356;19.448;2022-12-17T20:09:19;-1.67;87.43
68274;SHT30;55104;47.356;19.448;2022-12-17T20:12:21;-1.68;87.39
68274;SHT30;55104;47.356;19.448;2022-12-17T20:15:23;-1.65;87.10
68274;SHT30;55104;47.356;19.448;2022-12-17T20:18:25;-1.61;87.23
68274;SHT30;55104;47.356;19.448;2022-12-17T20:21:28;-1.64;87.34
68274;SHT30;55104;47.356;19.448;2022-12-17T20:24:30;-1.62;87.21
68274;SHT30;55104;47.356;19.448;2022-12-17T20:27:33;-1.65;87.19
68274;SHT30;55104;47.356;19.448;2022-12-17T20:30:37;-1.65;87.14
68274;SHT30;55104;47.356;19.448;2022-12-17T20:33:41;-1.57;86.99
68274;SHT30;55104;47.356;19.448;2022-12-17T20:36:43;-1.61;87.12
68274;SHT30;55104;47.356;19.448;2022-12-17T20:39:46;-1.57;86.88
68274;SHT30;55104;47.356;19.448;2022-12-17T20:42:50;-1.67;87.30
68274;SHT30;55104;47.356;19.448;2022-12-17T20:45:52;-1.64;87.17
68274;SHT30;55104;47.356;19.448;2022-12-17T20:48:59;-1.68;87.15
68274;SHT30;55104;47.356;19.448;2022-12-17T20:52:02;-1.67;87.05
68274;SHT30;55104;47.356;19.448;2022-12-17T20:55:04;-1.67;87.14
68274;SHT30;55104;47.356;19.448;2022-12-17T20:58:06;-1.64;86.93
68274;SHT30;55104;47.356;19.448;2022-12-17T21:01:19;-1.67;86.85
68274;SHT30;55104;47.356;19.448;2022-12-17T21:04:22;-1.62;86.99
68274;SHT30;55104;47.356;19.448;2022-12-17T21:07:24;-1.65;87.20
68274;SHT30;55104;47.356;19.448;2022-12-17T21:10:27;-1.57;87.15
68274;SHT30;55104;47.356;19.448;2022-12-17T21:13:28;-1.60;87.20
68274;SHT30;55104;47.356;19.448;2022-12-17T21:16:31;-1.47;87.06
68274;SHT30;55104;47.356;19.448;2022-12-17T21:19:33;-1.32;86.35
68274;SHT30;55104;47.356;19.448;2022-12-17T21:22:35;-1.37;86.67
68274;SHT30;55104;47.356;19.448;2022-12-17T21:25:37;-1.21;86.47
68274;SHT30;55104;47.356;19.448;2022-12-17T21:28:39;-1.17;86.19
68274;SHT30;55104;47.356;19.448;2022-12-17T21:31:49;-1.16;86.37
68274;SHT30;55104;47.356;19.448;2022-12-17T21:34:52;-1.16;86.28
68274;SHT30;55104;47.356;19.448;2022-12-17T21:37:54;-1.12;86.01
68274;SHT30;55104;47.356;19.448;2022-12-17T21:41:03;-1.13;85.88